Claremont, North Carolina
Current Conditions -  °F | °C
As of 7:35 PM on Thursday 18 Dec 2014 (Local Time) from KSVH Reporting Station
Overcast Overcast  
Wind Chill: 46°   Ceiling: 6500
Heat Index: 46°   Visibility: 10mi
Dew Point: 28°   Wind: 0mph
Humidity: 51%   Direction: NA
Pressure: 30.09"   Gusts: NA
Location:  35.71°N, 81.15°W
Report Text: KSVH 190035Z AUTO 00000KT 10SM OVC065 08/M02 A3009 RMK AO2 T00761020
Loading
Personal Weather Stations






























Interactive Weather Map New forecast layout! Learn more

10-Day Weather Forecast

Advertisements
Track Severe Weather on mobile